createdAt,value
2023-08-11T00:02:27.858Z,1.35
2023-08-11T00:04:59.166Z,1.57
2023-08-11T00:07:37.552Z,1.40
2023-08-11T00:10:09.778Z,1.20
2023-08-11T00:12:40.127Z,1.72
2023-08-11T00:15:11.415Z,1.73
2023-08-11T00:17:42.764Z,1.10
2023-08-11T00:20:14.344Z,1.40
2023-08-11T00:22:44.818Z,1.25
2023-08-11T00:25:15.278Z,1.20
2023-08-11T00:27:45.755Z,1.27
2023-08-11T00:30:16.129Z,1.20
2023-08-11T00:32:47.415Z,1.27
2023-08-11T00:35:17.913Z,1.12
2023-08-11T00:40:38.504Z,0.90
2023-08-11T00:43:27.529Z,1.10
2023-08-11T00:45:58.036Z,1.00
2023-08-11T00:48:28.619Z,1.20
2023-08-11T00:50:59.643Z,1.02
2023-08-11T00:53:31.568Z,1.00
2023-08-11T00:56:02.155Z,1.27
2023-08-11T00:58:32.758Z,0.90
2023-08-11T01:01:02.851Z,1.15
2023-08-11T01:03:33.225Z,0.82
2023-08-11T01:06:32.011Z,1.17
2023-08-11T01:09:39.401Z,1.20
2023-08-11T01:12:33.165Z,1.17
2023-08-11T01:15:26.172Z,1.47
2023-08-11T01:17:56.360Z,0.90
2023-08-11T01:20:26.923Z,0.96
2023-08-11T01:22:58.706Z,0.90
2023-08-11T01:25:28.936Z,1.07
2023-08-11T01:30:43.752Z,0.80
2023-08-11T01:33:15.367Z,0.77
2023-08-11T01:35:46.825Z,1.10
2023-08-11T01:38:17.358Z,0.90
2023-08-11T01:40:47.517Z,0.80
2023-08-11T01:43:19.370Z,0.80
2023-08-11T01:45:50.357Z,1.00
2023-08-11T01:48:21.610Z,0.80
2023-08-11T01:50:52.463Z,1.27
2023-08-11T01:53:23.406Z,0.90
2023-08-11T01:55:53.838Z,0.82
2023-08-11T01:58:24.779Z,0.85
2023-08-11T02:00:56.699Z,0.62
2023-08-11T02:03:27.237Z,0.90
2023-08-11T02:05:57.517Z,0.93
2023-08-11T02:08:27.825Z,0.80
2023-08-11T02:10:58.021Z,0.75
2023-08-11T02:13:28.404Z,0.80
2023-08-11T02:15:58.623Z,0.80
2023-08-11T02:18:28.878Z,0.70
2023-08-11T02:20:59.260Z,0.80
2023-08-11T02:23:29.530Z,0.85
2023-08-11T02:25:59.707Z,0.80
2023-08-11T02:28:30.094Z,0.70
2023-08-11T02:31:00.378Z,0.80
2023-08-11T02:33:30.741Z,0.78
2023-08-11T02:36:22.456Z,0.90
2023-08-11T02:38:53.905Z,0.80
2023-08-11T02:41:25.089Z,0.80
2023-08-11T02:43:56.275Z,0.70
2023-08-11T02:46:27.605Z,0.80
2023-08-11T02:48:57.745Z,0.70
2023-08-11T02:51:27.833Z,0.70
2023-08-11T02:53:58.202Z,0.70
2023-08-11T02:56:28.178Z,0.73
2023-08-11T02:58:59.263Z,1.10
2023-08-11T03:01:31.178Z,0.70
2023-08-11T03:04:01.702Z,0.87
2023-08-11T03:06:32.142Z,0.60
2023-08-11T03:09:02.340Z,0.70
2023-08-11T03:11:32.726Z,0.80
2023-08-11T03:14:03.972Z,0.70
2023-08-11T03:16:34.468Z,0.70
2023-08-11T03:19:04.827Z,1.93
2023-08-11T03:21:35.185Z,0.60
2023-08-11T03:24:06.403Z,1.82
2023-08-11T03:26:37.038Z,0.90
2023-08-11T03:29:07.442Z,0.70
2023-08-11T03:31:37.842Z,0.50
2023-08-11T03:34:08.053Z,0.70
2023-08-11T03:36:38.395Z,0.75
2023-08-11T03:39:08.765Z,0.60
2023-08-11T03:41:39.677Z,0.80
2023-08-11T03:44:10.224Z,0.70
2023-08-11T03:46:40.565Z,0.60
2023-08-11T03:49:10.735Z,0.80
2023-08-11T03:52:01.240Z,0.60
2023-08-11T03:54:43.492Z,0.70
2023-08-11T03:57:03.219Z,0.78
2023-08-11T03:59:33.557Z,0.80
2023-08-11T04:02:04.067Z,0.75
2023-08-11T04:04:34.626Z,0.70
2023-08-11T04:07:06.113Z,0.75
2023-08-11T04:09:36.611Z,0.70
2023-08-11T04:12:07.351Z,0.70
2023-08-11T04:14:38.520Z,1.00
2023-08-11T04:17:09.398Z,0.70
2023-08-11T04:19:39.831Z,0.80
2023-08-11T04:22:10.211Z,0.70
2023-08-11T04:24:40.604Z,0.80
2023-08-11T04:27:10.623Z,0.90
2023-08-11T04:32:21.017Z,0.70
2023-08-11T04:34:51.239Z,0.70
2023-08-11T04:37:21.837Z,0.70
2023-08-11T04:39:51.916Z,0.72
2023-08-11T04:42:22.810Z,0.70
2023-08-11T04:44:53.004Z,0.80
2023-08-11T04:47:23.236Z,0.60
2023-08-11T04:49:53.384Z,0.75
2023-08-11T04:52:23.996Z,0.80
2023-08-11T04:54:54.994Z,0.70
2023-08-11T04:57:26.122Z,0.80
2023-08-11T04:59:57.368Z,0.60
2023-08-11T05:02:28.463Z,0.80
2023-08-11T05:04:59.466Z,0.80
2023-08-11T05:07:29.746Z,0.80
2023-08-11T05:10:00.041Z,0.68
2023-08-11T05:12:30.473Z,1.20
2023-08-11T05:15:00.674Z,0.90
2023-08-11T05:17:30.960Z,0.80
2023-08-11T05:20:01.321Z,0.60
2023-08-11T05:22:31.637Z,0.80
2023-08-11T05:25:01.932Z,0.60
2023-08-11T05:27:32.231Z,0.70
2023-08-11T05:30:03.078Z,0.70
2023-08-11T05:32:34.778Z,0.65
2023-08-11T05:35:05.158Z,0.82
2023-08-11T05:37:36.384Z,0.72
2023-08-11T05:43:04.606Z,0.70
2023-08-11T05:45:35.063Z,0.70
2023-08-11T05:48:05.891Z,0.60
2023-08-11T05:50:36.407Z,0.80
2023-08-11T05:53:07.621Z,0.60
2023-08-11T05:55:39.306Z,0.70
2023-08-11T05:58:09.434Z,0.80
2023-08-11T06:00:40.048Z,0.60
2023-08-11T06:03:13.542Z,0.80
2023-08-11T06:05:44.039Z,0.72
2023-08-11T06:08:15.754Z,0.90
2023-08-11T06:10:51.860Z,0.67
2023-08-11T06:13:22.115Z,0.60
2023-08-11T06:15:52.806Z,0.50
2023-08-11T06:18:23.193Z,0.70
2023-08-11T06:20:54.871Z,0.70
2023-08-11T06:23:28.347Z,0.82
2023-08-11T06:25:57.320Z,0.70
2023-08-11T06:28:28.691Z,1.00
2023-08-11T06:30:59.810Z,0.65
2023-08-11T06:33:30.619Z,0.70
2023-08-11T06:36:01.124Z,0.70
2023-08-11T06:38:32.792Z,0.60
2023-08-11T06:41:03.431Z,0.82
2023-08-11T06:43:33.651Z,0.80
2023-08-11T06:46:05.274Z,0.70
2023-08-11T06:48:35.492Z,0.75
2023-08-11T06:51:26.488Z,0.83
2023-08-11T06:53:57.807Z,0.60
2023-08-11T06:56:28.904Z,0.70
2023-08-11T06:58:59.848Z,0.80
2023-08-11T07:01:31.253Z,0.60
2023-08-11T07:04:02.342Z,0.70
2023-08-11T07:06:32.830Z,0.82
2023-08-11T07:09:03.141Z,0.70
2023-08-11T07:11:34.739Z,0.82
2023-08-11T07:14:04.829Z,0.60
2023-08-11T07:16:35.100Z,0.80
2023-08-11T07:19:05.735Z,0.70
2023-08-11T07:21:35.884Z,0.65
2023-08-11T07:24:06.680Z,0.57
2023-08-11T07:26:36.705Z,0.70
2023-08-11T07:29:07.117Z,0.82
2023-08-11T07:31:40.884Z,0.60
2023-08-11T07:34:11.310Z,0.70
2023-08-11T07:36:42.617Z,0.70
2023-08-11T07:42:09.102Z,0.60
2023-08-11T07:44:39.418Z,0.80
2023-08-11T07:47:10.124Z,0.60
2023-08-11T07:49:40.904Z,0.78
2023-08-11T07:52:11.032Z,0.60
2023-08-11T07:54:41.377Z,0.70
2023-08-11T07:57:11.640Z,0.88
2023-08-11T07:59:42.062Z,0.70
2023-08-11T08:02:12.411Z,0.70
2023-08-11T08:04:42.576Z,0.80
2023-08-11T08:07:15.850Z,0.60
2023-08-11T08:09:46.984Z,0.70
2023-08-11T08:12:17.931Z,0.70
2023-08-11T08:14:48.262Z,0.68
2023-08-11T08:17:18.527Z,0.70
2023-08-11T08:19:48.772Z,0.60
2023-08-11T08:22:19.075Z,0.60
2023-08-11T08:24:50.211Z,0.60
2023-08-11T08:27:21.800Z,0.60
2023-08-11T08:29:52.139Z,0.80
2023-08-11T08:32:41.392Z,0.62
2023-08-11T08:35:12.112Z,0.53
2023-08-11T08:37:42.614Z,0.55
2023-08-11T08:40:14.431Z,0.90
2023-08-11T08:42:44.525Z,0.82
2023-08-11T08:45:14.783Z,0.60
2023-08-11T08:47:45.185Z,0.75
2023-08-11T08:50:15.376Z,0.80
2023-08-11T08:52:45.623Z,0.80
2023-08-11T08:55:17.375Z,0.68
2023-08-11T08:58:09.416Z,0.70
2023-08-11T09:00:39.926Z,0.70
2023-08-11T09:03:10.395Z,0.70
2023-08-11T09:05:40.853Z,0.70
2023-08-11T09:08:11.234Z,1.02
2023-08-11T09:10:41.694Z,0.60
2023-08-11T09:13:13.432Z,0.80
2023-08-11T09:16:04.214Z,0.60
2023-08-11T09:18:54.798Z,0.60
2023-08-11T09:21:27.488Z,0.70
2023-08-11T09:23:58.600Z,0.78
2023-08-11T09:26:30.567Z,0.70
2023-08-11T09:29:01.406Z,0.72
2023-08-11T09:31:32.682Z,0.60
2023-08-11T09:34:05.068Z,0.60
2023-08-11T09:36:35.388Z,0.57
2023-08-11T09:39:07.426Z,0.70
2023-08-11T09:41:46.325Z,0.60
2023-08-11T09:44:18.192Z,0.60
2023-08-11T09:46:51.203Z,0.60
2023-08-11T09:49:21.391Z,0.77
2023-08-11T09:51:51.090Z,0.67
2023-08-11T09:54:21.385Z,0.68
2023-08-11T09:56:51.667Z,0.50
2023-08-11T09:59:22.433Z,0.60
2023-08-11T10:01:52.464Z,0.60
2023-08-11T10:04:31.410Z,0.60
2023-08-11T10:07:01.912Z,0.60
2023-08-11T10:12:23.330Z,0.55
2023-08-11T10:14:53.803Z,0.57
2023-08-11T10:17:24.009Z,0.60
2023-08-11T10:19:54.838Z,0.60
2023-08-11T10:22:25.336Z,0.50
2023-08-11T10:24:55.489Z,0.50
2023-08-11T10:27:25.818Z,0.53
2023-08-11T10:30:15.209Z,0.60
2023-08-11T10:32:45.528Z,0.80
2023-08-11T10:35:28.941Z,0.65
2023-08-11T10:38:02.126Z,0.70
2023-08-11T10:40:38.492Z,0.90
2023-08-11T10:43:08.905Z,0.78
2023-08-11T10:45:40.526Z,0.70
2023-08-11T10:48:11.532Z,0.80
2023-08-11T10:50:41.926Z,0.60
2023-08-11T10:53:22.769Z,0.70
2023-08-11T10:56:03.593Z,0.60
2023-08-11T10:58:33.743Z,0.78
2023-08-11T11:01:05.746Z,0.70
2023-08-11T11:03:36.132Z,0.60
2023-08-11T11:06:07.659Z,0.60
2023-08-11T11:08:38.020Z,0.70
2023-08-11T11:11:09.460Z,0.68
2023-08-11T11:13:39.655Z,0.57
2023-08-11T11:16:10.141Z,0.70
2023-08-11T11:18:41.876Z,0.70
2023-08-11T11:21:15.881Z,0.50
2023-08-11T11:23:50.022Z,0.77
2023-08-11T11:26:30.140Z,0.60
2023-08-11T11:29:02.269Z,0.70
2023-08-11T11:31:36.489Z,0.60
2023-08-11T11:34:06.961Z,0.78
2023-08-11T11:36:37.326Z,0.70
2023-08-11T11:39:09.967Z,0.65
2023-08-11T11:41:40.192Z,0.70
2023-08-11T11:44:13.070Z,0.70
2023-08-11T11:46:43.969Z,0.70
2023-08-11T11:49:24.356Z,0.70
2023-08-11T11:51:47.533Z,0.82
2023-08-11T11:54:17.858Z,0.70
2023-08-11T11:57:02.359Z,0.75
2023-08-11T11:59:19.930Z,0.60
2023-08-11T12:01:50.393Z,0.67
2023-08-11T12:04:40.640Z,0.70
2023-08-11T12:07:11.388Z,0.72
2023-08-11T12:09:56.609Z,0.60
2023-08-11T12:12:31.583Z,0.60
2023-08-11T12:15:10.840Z,0.70
2023-08-11T12:17:41.069Z,0.70
2023-08-11T12:20:12.092Z,0.70
2023-08-11T12:22:44.469Z,0.70
2023-08-11T12:25:16.015Z,0.68
2023-08-11T12:27:47.061Z,0.78
2023-08-11T12:30:17.834Z,0.60
2023-08-11T12:32:48.258Z,0.68
2023-08-11T12:35:18.594Z,0.70
2023-08-11T12:37:48.940Z,0.50
2023-08-11T12:40:39.400Z,0.80
2023-08-11T12:43:13.492Z,0.62
2023-08-11T12:45:46.450Z,0.60
2023-08-11T12:48:17.278Z,0.70
2023-08-11T12:50:47.483Z,0.60
2023-08-11T12:53:17.896Z,0.70
2023-08-11T12:55:48.069Z,0.62
2023-08-11T12:58:20.726Z,0.50
2023-08-11T13:00:51.145Z,0.70
2023-08-11T13:03:21.109Z,0.70
2023-08-11T13:06:11.709Z,0.70
2023-08-11T13:08:42.174Z,0.70
2023-08-11T13:11:12.386Z,0.80
2023-08-11T13:13:42.589Z,0.80
2023-08-11T13:16:14.498Z,0.80
2023-08-11T13:18:44.961Z,0.80
2023-08-11T13:21:15.278Z,0.80
2023-08-11T13:23:45.573Z,0.83
2023-08-11T13:26:17.500Z,0.70
2023-08-11T13:28:47.666Z,0.80
2023-08-11T13:31:17.977Z,0.80
2023-08-11T13:33:51.126Z,0.83
2023-08-11T13:36:21.405Z,0.63
2023-08-11T13:38:51.981Z,0.70
2023-08-11T13:41:22.322Z,0.80
2023-08-11T13:43:52.794Z,0.80
2023-08-11T13:46:23.085Z,0.80
2023-08-11T13:48:53.274Z,0.90
2023-08-11T13:51:43.889Z,0.73
2023-08-11T13:54:14.309Z,0.84
2023-08-11T13:56:44.655Z,0.70
2023-08-11T13:59:15.374Z,0.70
2023-08-11T14:01:45.811Z,0.62
2023-08-11T14:04:16.106Z,0.60
2023-08-11T14:06:46.162Z,0.90
2023-08-11T14:09:16.438Z,0.80
2023-08-11T14:11:46.469Z,0.90
2023-08-11T14:14:16.833Z,0.78
2023-08-11T14:16:47.175Z,0.80
2023-08-11T14:19:17.471Z,0.70
2023-08-11T14:21:52.188Z,0.80
2023-08-11T14:24:22.678Z,0.83
2023-08-11T14:26:52.833Z,0.70
2023-08-11T14:29:23.376Z,0.70
2023-08-11T14:32:13.809Z,0.70
2023-08-11T14:34:31.904Z,0.80
2023-08-11T14:37:02.246Z,0.70
2023-08-11T14:39:32.788Z,0.70
2023-08-11T14:42:02.913Z,0.75
2023-08-11T14:44:34.267Z,0.72
2023-08-11T14:47:05.358Z,0.70
2023-08-11T14:49:36.127Z,0.80
2023-08-11T14:52:07.820Z,1.00
2023-08-11T14:54:39.011Z,0.70
2023-08-11T14:57:10.997Z,0.90
2023-08-11T14:59:41.969Z,0.70
2023-08-11T15:02:12.541Z,0.70
2023-08-11T15:04:43.092Z,0.80
2023-08-11T15:07:13.231Z,0.70
2023-08-11T15:09:43.271Z,0.70
2023-08-11T15:12:13.712Z,0.70
2023-08-11T15:14:44.256Z,0.85
2023-08-11T15:17:15.530Z,0.80
2023-08-11T15:19:45.666Z,0.80
2023-08-11T15:22:16.157Z,0.70
2023-08-11T15:24:46.471Z,0.80
2023-08-11T15:27:18.163Z,0.60
2023-08-11T15:29:48.409Z,0.80
2023-08-11T15:32:18.764Z,0.70
2023-08-11T15:34:48.857Z,0.70
2023-08-11T15:37:19.334Z,0.70
2023-08-11T15:39:49.387Z,0.70
2023-08-11T15:42:19.997Z,0.80
2023-08-11T15:44:50.229Z,0.80
2023-08-11T15:47:20.243Z,0.73
2023-08-11T15:49:50.604Z,0.90
2023-08-11T15:52:20.693Z,0.77
2023-08-11T15:54:50.989Z,0.80
2023-08-11T15:57:21.369Z,0.60
2023-08-11T15:59:51.667Z,0.70
2023-08-11T16:02:23.534Z,0.90
2023-08-11T16:04:53.633Z,0.73
2023-08-11T16:07:25.066Z,0.80
2023-08-11T16:09:56.881Z,0.90
2023-08-11T16:12:27.104Z,0.77
2023-08-11T16:14:57.398Z,0.80
2023-08-11T16:17:27.834Z,0.80
2023-08-11T16:19:58.196Z,0.98
2023-08-11T16:22:28.628Z,0.80
2023-08-11T16:24:58.708Z,0.80
2023-08-11T16:27:30.145Z,0.75
2023-08-11T16:30:00.778Z,0.95
2023-08-11T16:32:30.946Z,0.70
2023-08-11T16:35:01.770Z,0.85
2023-08-11T16:37:31.911Z,0.85
2023-08-11T16:40:02.145Z,0.70
2023-08-11T16:42:32.361Z,0.90
2023-08-11T16:45:02.514Z,0.70
2023-08-11T16:47:32.814Z,0.70
2023-08-11T16:50:03.737Z,0.75
2023-08-11T16:52:34.099Z,0.70
2023-08-11T16:55:05.140Z,0.90
2023-08-11T16:57:36.154Z,0.90
2023-08-11T17:00:07.960Z,0.72
2023-08-11T17:02:38.354Z,0.65
2023-08-11T17:05:09.262Z,0.80
2023-08-11T17:07:43.050Z,1.60
2023-08-11T17:10:17.036Z,2.95
2023-08-11T17:12:50.363Z,4.00
2023-08-11T17:15:19.067Z,3.00
2023-08-11T17:17:49.302Z,3.92
2023-08-11T17:20:20.197Z,5.60
2023-08-11T17:22:53.803Z,3.05
2023-08-11T17:25:23.880Z,2.50
2023-08-11T17:27:53.939Z,2.98
2023-08-11T17:30:24.307Z,3.42
2023-08-11T17:32:54.536Z,4.03
2023-08-11T17:35:24.745Z,3.75
2023-08-11T17:37:56.500Z,2.95
2023-08-11T17:40:26.903Z,3.47
2023-08-11T17:43:03.685Z,3.87
2023-08-11T17:45:34.185Z,10.68
2023-08-11T17:48:04.762Z,16.25
2023-08-11T17:50:35.862Z,18.50
2023-08-11T17:53:07.266Z,11.84
2023-08-11T17:55:38.055Z,15.95
2023-08-11T17:58:09.127Z,13.95
2023-08-11T18:00:39.430Z,12.63
2023-08-11T18:03:10.794Z,11.78
2023-08-11T18:05:43.773Z,12.23
2023-08-11T18:08:13.932Z,10.98
2023-08-11T18:10:44.329Z,7.53
2023-08-11T18:13:14.890Z,8.53
2023-08-11T18:15:45.239Z,7.47
2023-08-11T18:18:15.365Z,6.45
2023-08-11T18:20:45.588Z,6.57
2023-08-11T18:23:16.257Z,5.58
2023-08-11T18:25:46.634Z,4.30
2023-08-11T18:28:17.238Z,4.75
2023-08-11T18:30:47.644Z,4.70
2023-08-11T18:33:17.793Z,3.67
2023-08-11T18:35:48.192Z,4.08
2023-08-11T18:38:18.406Z,2.87
2023-08-11T18:40:50.243Z,3.10
2023-08-11T18:43:29.354Z,3.20
2023-08-11T18:45:59.894Z,3.67
2023-08-11T18:48:30.118Z,4.15
2023-08-11T18:51:00.501Z,4.65
2023-08-11T18:53:31.364Z,3.85
2023-08-11T18:56:01.640Z,3.50
2023-08-11T18:58:32.032Z,4.28
2023-08-11T19:01:02.214Z,4.37
2023-08-11T19:03:32.707Z,4.03
2023-08-11T19:06:03.129Z,3.97
2023-08-11T19:08:33.296Z,3.85
2023-08-11T19:11:03.988Z,3.90
2023-08-11T19:13:34.338Z,4.53
2023-08-11T19:16:04.674Z,3.75
2023-08-11T19:18:35.130Z,3.50
2023-08-11T19:21:05.452Z,3.00
2023-08-11T19:23:35.829Z,3.27
2023-08-11T19:26:06.276Z,3.30
2023-08-11T19:28:36.615Z,3.10
2023-08-11T19:31:06.843Z,3.60
2023-08-11T19:33:37.253Z,3.25
2023-08-11T19:36:08.559Z,2.88
2023-08-11T19:38:40.849Z,2.72
2023-08-11T19:41:12.397Z,2.85
2023-08-11T19:43:42.851Z,2.70
2023-08-11T19:46:13.335Z,2.20
2023-08-11T19:48:43.627Z,2.33
2023-08-11T19:51:13.760Z,2.42
2023-08-11T19:53:44.277Z,1.90
2023-08-11T19:56:14.677Z,2.12
2023-08-11T19:58:44.913Z,1.98
2023-08-11T20:01:15.172Z,2.30
2023-08-11T20:03:45.579Z,2.10
2023-08-11T20:06:15.912Z,2.00
2023-08-11T20:08:46.284Z,1.97
2023-08-11T20:11:16.584Z,2.33
2023-08-11T20:13:47.000Z,2.67
2023-08-11T20:16:17.611Z,2.40
2023-08-11T20:18:48.645Z,2.58
2023-08-11T20:21:18.983Z,2.00
2023-08-11T20:23:49.412Z,2.40
2023-08-11T20:26:19.538Z,2.10
2023-08-11T20:28:49.652Z,2.30
2023-08-11T20:31:19.998Z,2.42
2023-08-11T20:33:50.302Z,1.90
2023-08-11T20:36:20.974Z,1.80
2023-08-11T20:38:51.664Z,1.77
2023-08-11T20:41:21.988Z,1.87
2023-08-11T20:43:52.281Z,1.45
2023-08-11T20:46:22.736Z,1.60
2023-08-11T20:48:52.908Z,1.57
2023-08-11T20:51:23.229Z,1.50
2023-08-11T20:53:53.712Z,1.57
2023-08-11T20:56:24.210Z,1.20
2023-08-11T20:58:54.131Z,1.27
2023-08-11T21:01:24.638Z,1.20
2023-08-11T21:03:54.883Z,1.45
2023-08-11T21:06:25.052Z,1.12
2023-08-11T21:08:55.840Z,1.10
2023-08-11T21:11:26.159Z,0.90
2023-08-11T21:13:57.514Z,1.00
2023-08-11T21:16:27.873Z,1.20
2023-08-11T21:18:58.217Z,1.07
2023-08-11T21:21:28.584Z,1.03
2023-08-11T21:23:58.722Z,1.00
2023-08-11T21:26:28.972Z,0.80
2023-08-11T21:29:03.958Z,0.83
2023-08-11T21:31:34.590Z,1.07
2023-08-11T21:34:10.777Z,0.72
2023-08-11T21:36:41.470Z,0.85
2023-08-11T21:39:12.742Z,0.96
2023-08-11T21:41:44.044Z,0.90
2023-08-11T21:44:15.020Z,0.80
2023-08-11T21:46:44.941Z,0.88
2023-08-11T21:49:14.962Z,0.86
2023-08-11T21:51:45.105Z,0.94
2023-08-11T21:54:15.202Z,0.70
2023-08-11T21:56:45.573Z,0.76
2023-08-11T21:59:15.927Z,0.80
2023-08-11T22:01:46.387Z,0.80
2023-08-11T22:04:16.525Z,0.85
2023-08-11T22:07:06.842Z,0.80
2023-08-11T22:09:37.588Z,0.85
2023-08-11T22:12:08.239Z,0.90
2023-08-11T22:14:38.469Z,0.72
2023-08-11T22:17:08.967Z,0.70
2023-08-11T22:19:41.031Z,0.83
2023-08-11T22:22:13.730Z,1.00
2023-08-11T22:24:44.574Z,0.95
2023-08-11T22:27:16.081Z,0.90
2023-08-11T22:29:51.276Z,0.80
2023-08-11T22:32:21.555Z,0.72
2023-08-11T22:34:54.700Z,0.70
2023-08-11T22:37:25.429Z,0.87
2023-08-11T22:39:55.734Z,0.80
2023-08-11T22:42:28.042Z,0.80
2023-08-11T22:45:18.492Z,0.60
2023-08-11T22:47:48.879Z,0.65
2023-08-11T22:50:19.325Z,0.82
2023-08-11T22:52:49.969Z,0.75
2023-08-11T22:55:20.280Z,0.70
2023-08-11T22:57:50.541Z,0.88
2023-08-11T23:00:21.638Z,1.22
2023-08-11T23:02:52.053Z,1.00
2023-08-11T23:05:22.374Z,1.00
2023-08-11T23:07:54.142Z,0.80
2023-08-11T23:10:24.423Z,0.82
2023-08-11T23:12:54.794Z,0.80
2023-08-11T23:15:25.198Z,0.70
2023-08-11T23:17:56.834Z,0.93
2023-08-11T23:20:26.993Z,0.70
2023-08-11T23:22:57.295Z,0.70
2023-08-11T23:25:27.916Z,0.72
2023-08-11T23:27:59.930Z,0.90
2023-08-11T23:30:34.826Z,0.80
2023-08-11T23:33:06.874Z,0.85
2023-08-11T23:35:44.824Z,0.90
2023-08-11T23:38:16.411Z,0.80
2023-08-11T23:40:46.950Z,0.80
2023-08-11T23:43:18.782Z,0.83
2023-08-11T23:45:49.095Z,0.60
2023-08-11T23:48:21.187Z,0.60
2023-08-11T23:50:53.157Z,0.50
2023-08-11T23:53:23.642Z,0.72
2023-08-11T23:55:54.420Z,0.80
2023-08-11T23:58:24.933Z,0.60
